sensor_id;sensor_type;location;lat;lon;timestamp;pressure;altitude;pressure_sealevel;temperature;humidity
42603;BME280;28233;55.748;48.752;2023-03-04T00:01:16;97662.97;;;-1.54;100.00
42603;BME280;28233;55.748;48.752;2023-03-04T00:03:18;97666.47;;;-1.53;100.00
42603;BME280;28233;55.748;48.752;2023-03-04T00:05:21;97675.38;;;-1.53;100.00
42603;BME280;28233;55.748;48.752;2023-03-04T00:07:24;97667.56;;;-1.54;100.00
42603;BME280;28233;55.748;48.752;2023-03-04T00:09:27;97661.31;;;-1.50;100.00
42603;BME280;28233;55.748;48.752;2023-03-04T00:11:30;97661.75;;;-1.42;100.00
42603;BME280;28233;55.748;48.752;2023-03-04T00:13:33;97662.47;;;-1.37;100.00
42603;BME280;28233;55.748;48.752;2023-03-04T00:15:36;97661.94;;;-1.34;100.00
42603;BME280;28233;55.748;48.752;2023-03-04T00:17:38;97670.22;;;-1.30;100.00
42603;BME280;28233;55.748;48.752;2023-03-04T00:19:41;97667.16;;;-1.23;100.00
42603;BME280;28233;55.748;48.752;2023-03-04T00:21:44;97666.31;;;-1.19;100.00
42603;BME280;28233;55.748;48.752;2023-03-04T00:23:46;97668.72;;;-1.17;100.00
42603;BME280;28233;55.748;48.752;2023-03-04T00:25:49;97674.03;;;-1.12;100.00
42603;BME280;28233;55.748;48.752;2023-03-04T00:27:52;97673.44;;;-1.09;100.00
42603;BME280;28233;55.748;48.752;2023-03-04T00:29:55;97674.47;;;-1.05;100.00
42603;BME280;28233;55.748;48.752;2023-03-04T00:31:58;97675.50;;;-1.01;100.00
42603;BME280;28233;55.748;48.752;2023-03-04T00:34:01;97666.59;;;-1.01;100.00
42603;BME280;28233;55.748;48.752;2023-03-04T00:36:04;97678.19;;;-1.01;100.00
42603;BME280;28233;55.748;48.752;2023-03-04T00:38:07;97669.28;;;-1.01;100.00
42603;BME280;28233;55.748;48.752;2023-03-04T00:40:10;97669.78;;;-0.99;100.00
42603;BME280;28233;55.748;48.752;2023-03-04T00:42:13;97683.59;;;-1.01;100.00
42603;BME280;28233;55.748;48.752;2023-03-04T00:44:16;97672.81;;;-1.01;100.00
42603;BME280;28233;55.748;48.752;2023-03-04T00:46:20;97670.38;;;-1.02;100.00
42603;BME280;28233;55.748;48.752;2023-03-04T00:48:23;97675.53;;;-1.06;100.00
42603;BME280;28233;55.748;48.752;2023-03-04T00:50:26;97667.97;;;-1.04;100.00
42603;BME280;28233;55.748;48.752;2023-03-04T00:52:28;97673.38;;;-1.04;100.00
42603;BME280;28233;55.748;48.752;2023-03-04T00:54:31;97679.28;;;-1.02;100.00
42603;BME280;28233;55.748;48.752;2023-03-04T00:56:34;97674.41;;;-1.00;100.00
42603;BME280;28233;55.748;48.752;2023-03-04T00:58:37;97665.19;;;-0.99;100.00
42603;BME280;28233;55.748;48.752;2023-03-04T01:00:40;97674.31;;;-0.95;100.00
42603;BME280;28233;55.748;48.752;2023-03-04T01:02:43;97674.53;;;-0.91;100.00
42603;BME280;28233;55.748;48.752;2023-03-04T01:04:46;97674.22;;;-0.90;100.00
42603;BME280;28233;55.748;48.752;2023-03-04T01:06:48;97672.38;;;-0.89;100.00
42603;BME280;28233;55.748;48.752;2023-03-04T01:08:51;97674.22;;;-0.90;100.00
42603;BME280;28233;55.748;48.752;2023-03-04T01:10:54;97662.38;;;-0.89;100.00
42603;BME280;28233;55.748;48.752;2023-03-04T01:12:56;97676.38;;;-0.87;100.00
42603;BME280;28233;55.748;48.752;2023-03-04T01:14:59;97669.88;;;-0.86;100.00
42603;BME280;28233;55.748;48.752;2023-03-04T01:17:02;97663.41;;;-0.84;100.00
42603;BME280;28233;55.748;48.752;2023-03-04T01:19:05;97670.66;;;-0.85;100.00
42603;BME280;28233;55.748;48.752;2023-03-04T01:21:08;97667.44;;;-0.87;100.00
42603;BME280;28233;55.748;48.752;2023-03-04T01:23:10;97669.88;;;-0.86;100.00
42603;BME280;28233;55.748;48.752;2023-03-04T01:25:13;97670.66;;;-0.85;100.00
42603;BME280;28233;55.748;48.752;2023-03-04T01:27:16;97676.66;;;-0.88;100.00
42603;BME280;28233;55.748;48.752;2023-03-04T01:29:18;97688.22;;;-0.88;100.00
42603;BME280;28233;55.748;48.752;2023-03-04T01:31:21;97679.63;;;-0.90;100.00
42603;BME280;28233;55.748;48.752;2023-03-04T01:33:24;97677.53;;;-0.93;100.00
42603;BME280;28233;55.748;48.752;2023-03-04T01:35:27;97685.88;;;-0.94;100.00
42603;BME280;28233;55.748;48.752;2023-03-04T01:37:29;97682.91;;;-0.93;100.00
42603;BME280;28233;55.748;48.752;2023-03-04T01:39:32;97683.44;;;-0.91;100.00
42603;BME280;28233;55.748;48.752;2023-03-04T01:41:35;97689.84;;;-0.87;100.00
42603;BME280;28233;55.748;48.752;2023-03-04T01:43:38;97682.28;;;-0.84;100.00
42603;BME280;28233;55.748;48.752;2023-03-04T01:45:41;97683.06;;;-0.84;100.00
42603;BME280;28233;55.748;48.752;2023-03-04T01:47:45;97687.06;;;-0.81;100.00
42603;BME280;28233;55.748;48.752;2023-03-04T01:49:53;97674.38;;;-0.81;100.00
42603;BME280;28233;55.748;48.752;2023-03-04T01:51:57;97691.34;;;-0.80;100.00
42603;BME280;28233;55.748;48.752;2023-03-04T01:54:00;97689.19;;;-0.78;100.00
42603;BME280;28233;55.748;48.752;2023-03-04T01:56:15;97682.72;;;-0.77;100.00
42603;BME280;28233;55.748;48.752;2023-03-04T01:58:18;97682.91;;;-0.74;100.00
42603;BME280;28233;55.748;48.752;2023-03-04T02:00:27;97681.84;;;-0.73;100.00
42603;BME280;28233;55.748;48.752;2023-03-04T02:02:32;97679.13;;;-0.73;100.00
42603;BME280;28233;55.748;48.752;2023-03-04T02:04:35;97679.94;;;-0.72;100.00
42603;BME280;28233;55.748;48.752;2023-03-04T02:06:39;97682.91;;;-0.74;100.00
42603;BME280;28233;55.748;48.752;2023-03-04T02:08:42;97684.22;;;-0.71;100.00
42603;BME280;28233;55.748;48.752;2023-03-04T02:10:45;97690.13;;;-0.69;100.00
42603;BME280;28233;55.748;48.752;2023-03-04T02:13:09;97689.31;;;-0.70;100.00
42603;BME280;28233;55.748;48.752;2023-03-04T02:15:12;97690.91;;;-0.69;100.00
42603;BME280;28233;55.748;48.752;2023-03-04T02:17:15;97689.03;;;-0.68;100.00
42603;BME280;28233;55.748;48.752;2023-03-04T02:21:42;97686.34;;;-0.68;100.00
42603;BME280;28233;55.748;48.752;2023-03-04T02:26:15;97682.25;;;-0.66;100.00
42603;BME280;28233;55.748;48.752;2023-03-04T02:28:19;97679.56;;;-0.66;100.00
42603;BME280;28233;55.748;48.752;2023-03-04T02:30:23;97682.47;;;-0.62;100.00
42603;BME280;28233;55.748;48.752;2023-03-04T02:32:27;97692.97;;;-0.60;100.00
42603;BME280;28233;55.748;48.752;2023-03-04T02:34:32;97690.78;;;-0.58;100.00
42603;BME280;28233;55.748;48.752;2023-03-04T02:36:35;97684.88;;;-0.60;100.00
42603;BME280;28233;55.748;48.752;2023-03-04T02:38:38;97685.06;;;-0.57;100.00
42603;BME280;28233;55.748;48.752;2023-03-04T02:40:42;97695.28;;;-0.54;100.00
42603;BME280;28233;55.748;48.752;2023-03-04T02:42:48;97684.50;;;-0.54;100.00
42603;BME280;28233;55.748;48.752;2023-03-04T02:44:58;97685.81;;;-0.51;100.00
42603;BME280;28233;55.748;48.752;2023-03-04T02:47:04;97683.41;;;-0.53;100.00
42603;BME280;28233;55.748;48.752;2023-03-04T02:49:07;97686.38;;;-0.54;99.93
42603;BME280;28233;55.748;48.752;2023-03-04T02:51:10;97679.09;;;-0.54;100.00
42603;BME280;28233;55.748;48.752;2023-03-04T02:53:13;97678.00;;;-0.53;99.78
42603;BME280;28233;55.748;48.752;2023-03-04T02:55:16;97681.50;;;-0.52;99.78
42603;BME280;28233;55.748;48.752;2023-03-04T02:57:19;97678.50;;;-0.51;99.88
42603;BME280;28233;55.748;48.752;2023-03-04T02:59:22;97675.81;;;-0.51;99.52
42603;BME280;28233;55.748;48.752;2023-03-04T03:01:27;97667.44;;;-0.49;99.89
42603;BME280;28233;55.748;48.752;2023-03-04T03:03:30;97667.44;;;-0.49;99.38
42603;BME280;28233;55.748;48.752;2023-03-04T03:05:33;97668.00;;;-0.52;99.42
42603;BME280;28233;55.748;48.752;2023-03-04T03:07:36;97668.81;;;-0.52;99.55
42603;BME280;28233;55.748;48.752;2023-03-04T03:09:39;97676.91;;;-0.52;99.74
42603;BME280;28233;55.748;48.752;2023-03-04T03:11:42;97675.81;;;-0.51;99.55
42603;BME280;28233;55.748;48.752;2023-03-04T03:13:44;97675.81;;;-0.51;99.33
42603;BME280;28233;55.748;48.752;2023-03-04T03:15:47;97679.31;;;-0.50;99.17
42603;BME280;28233;55.748;48.752;2023-03-04T03:17:51;97671.22;;;-0.50;99.31
42603;BME280;28233;55.748;48.752;2023-03-04T03:19:53;97677.50;;;-0.55;99.22
42603;BME280;28233;55.748;48.752;2023-03-04T03:21:56;97665.91;;;-0.55;99.11
42603;BME280;28233;55.748;48.752;2023-03-04T03:23:59;97675.31;;;-0.53;98.92
42603;BME280;28233;55.748;48.752;2023-03-04T03:26:03;97678.22;;;-0.49;99.68
42603;BME280;28233;55.748;48.752;2023-03-04T03:28:06;97677.91;;;-0.48;99.16
42603;BME280;28233;55.748;48.752;2023-03-04T03:30:11;97666.31;;;-0.48;99.03
42603;BME280;28233;55.748;48.752;2023-03-04T03:32:14;97668.31;;;-0.54;98.53
42603;BME280;28233;55.748;48.752;2023-03-04T03:34:17;97661.31;;;-0.55;98.45
42603;BME280;28233;55.748;48.752;2023-03-04T03:36:20;97665.69;;;-0.59;98.49
42603;BME280;28233;55.748;48.752;2023-03-04T03:38:22;97660.28;;;-0.59;98.97
42603;BME280;28233;55.748;48.752;2023-03-04T03:40:25;97659.41;;;-0.54;99.35
42603;BME280;28233;55.748;48.752;2023-03-04T03:42:28;97654.84;;;-0.54;99.20
42603;BME280;28233;55.748;48.752;2023-03-04T03:44:31;97661.81;;;-0.53;98.97
42603;BME280;28233;55.748;48.752;2023-03-04T03:46:34;97660.22;;;-0.54;98.64
42603;BME280;28233;55.748;48.752;2023-03-04T03:48:36;97656.41;;;-0.53;98.86
42603;BME280;28233;55.748;48.752;2023-03-04T03:50:39;97663.63;;;-0.48;99.53
42603;BME280;28233;55.748;48.752;2023-03-04T03:52:42;97660.94;;;-0.48;99.21
42603;BME280;28233;55.748;48.752;2023-03-04T03:54:44;97661.94;;;-0.44;98.78
42603;BME280;28233;55.748;48.752;2023-03-04T03:56:47;97668.13;;;-0.44;98.35
42603;BME280;28233;55.748;48.752;2023-03-04T03:58:50;97664.34;;;-0.43;98.75
42603;BME280;28233;55.748;48.752;2023-03-04T04:00:52;97665.94;;;-0.41;98.77
42603;BME280;28233;55.748;48.752;2023-03-04T04:02:59;97672.94;;;-0.40;98.52
42603;BME280;28233;55.748;48.752;2023-03-04T04:05:02;97677.44;;;-0.36;98.58
42603;BME280;28233;55.748;48.752;2023-03-04T04:07:05;97670.16;;;-0.35;98.14
42603;BME280;28233;55.748;48.752;2023-03-04T04:09:08;97679.56;;;-0.33;98.80
42603;BME280;28233;55.748;48.752;2023-03-04T04:11:12;97667.91;;;-0.28;98.73
42603;BME280;28233;55.748;48.752;2023-03-04T04:13:15;97676.47;;;-0.26;98.36
42603;BME280;28233;55.748;48.752;2023-03-04T04:15:17;97681.31;;;-0.23;98.08
42603;BME280;28233;55.748;48.752;2023-03-04T04:17:20;97677.59;;;-0.27;98.01
42603;BME280;28233;55.748;48.752;2023-03-04T04:19:23;97675.06;;;-0.24;97.89
42603;BME280;28233;55.748;48.752;2023-03-04T04:21:25;97677.78;;;-0.24;97.84
42603;BME280;28233;55.748;48.752;2023-03-04T04:23:29;97681.88;;;-0.26;97.86
42603;BME280;28233;55.748;48.752;2023-03-04T04:25:32;97682.09;;;-0.23;97.68
42603;BME280;28233;55.748;48.752;2023-03-04T04:27:35;97682.28;;;-0.19;97.77
42603;BME280;28233;55.748;48.752;2023-03-04T04:29:39;97681.22;;;-0.18;97.18
42603;BME280;28233;55.748;48.752;2023-03-04T04:31:42;97682.78;;;-0.17;96.97
42603;BME280;28233;55.748;48.752;2023-03-04T04:33:44;97677.91;;;-0.15;96.67
42603;BME280;28233;55.748;48.752;2023-03-04T04:35:47;97678.91;;;-0.11;97.14
42603;BME280;28233;55.748;48.752;2023-03-04T04:37:50;97680.59;;;-0.15;96.88
42603;BME280;28233;55.748;48.752;2023-03-04T04:39:52;97665.94;;;-0.09;96.76
42603;BME280;28233;55.748;48.752;2023-03-04T04:41:56;97679.63;;;-0.05;96.81
42603;BME280;28233;55.748;48.752;2023-03-04T04:43:59;97674.22;;;-0.05;96.01
42603;BME280;28233;55.748;48.752;2023-03-04T04:46:01;97670.22;;;-0.08;96.07
42603;BME280;28233;55.748;48.752;2023-03-04T04:48:04;97668.31;;;-0.07;95.60
42603;BME280;28233;55.748;48.752;2023-03-04T04:50:08;97670.44;;;-0.04;95.80
42603;BME280;28233;55.748;48.752;2023-03-04T04:52:11;97671.44;;;0.00;95.74
42603;BME280;28233;55.748;48.752;2023-03-04T04:54:13;97671.03;;;0.07;96.03
42603;BME280;28233;55.748;48.752;2023-03-04T04:56:20;97674.25;;;0.09;95.44
42603;BME280;28233;55.748;48.752;2023-03-04T04:58:23;97670.56;;;0.18;95.24
42603;BME280;28233;55.748;48.752;2023-03-04T05:00:25;97682.06;;;0.24;94.86
42603;BME280;28233;55.748;48.752;2023-03-04T05:02:28;97677.97;;;0.27;94.38
42603;BME280;28233;55.748;48.752;2023-03-04T05:04:31;97669.56;;;0.28;94.02
42603;BME280;28233;55.748;48.752;2023-03-04T05:06:33;97682.47;;;0.31;93.63
42603;BME280;28233;55.748;48.752;2023-03-04T05:08:36;97675.47;;;0.30;93.53
42603;BME280;28233;55.748;48.752;2023-03-04T05:10:39;97662.78;;;0.31;93.94
42603;BME280;28233;55.748;48.752;2023-03-04T05:12:43;97670.44;;;0.37;93.24
42603;BME280;28233;55.748;48.752;2023-03-04T05:14:46;97660.88;;;0.31;93.34
42603;BME280;28233;55.748;48.752;2023-03-04T05:16:48;97665.44;;;0.45;93.42
42603;BME280;28233;55.748;48.752;2023-03-04T05:18:51;97660.94;;;0.54;92.79
42603;BME280;28233;55.748;48.752;2023-03-04T05:20:56;97657.84;;;0.60;93.01
42603;BME280;28233;55.748;48.752;2023-03-04T05:22:59;97665.38;;;0.63;92.34
42603;BME280;28233;55.748;48.752;2023-03-04T05:25:02;97657.44;;;0.67;92.15
42603;BME280;28233;55.748;48.752;2023-03-04T05:27:05;97666.03;;;0.69;92.24
42603;BME280;28233;55.748;48.752;2023-03-04T05:29:08;97671.34;;;0.74;91.71
42603;BME280;28233;55.748;48.752;2023-03-04T05:31:11;97662.44;;;0.74;91.49
42603;BME280;28233;55.748;48.752;2023-03-04T05:33:16;97664.84;;;0.75;91.27
42603;BME280;28233;55.748;48.752;2023-03-04T05:35:19;97669.53;;;0.83;91.50
42603;BME280;28233;55.748;48.752;2023-03-04T05:37:22;97672.03;;;0.80;90.20
42603;BME280;28233;55.748;48.752;2023-03-04T05:39:24;97658.72;;;0.83;91.34
42603;BME280;28233;55.748;48.752;2023-03-04T05:41:27;97667.03;;;0.87;89.57
42603;BME280;28233;55.748;48.752;2023-03-04T05:43:30;97661.22;;;0.80;89.59
42603;BME280;28233;55.748;48.752;2023-03-04T05:45:33;97658.50;;;0.80;89.49
42603;BME280;28233;55.748;48.752;2023-03-04T05:47:36;97659.84;;;0.69;89.36
42603;BME280;28233;55.748;48.752;2023-03-04T05:49:38;97665.38;;;0.63;89.85
42603;BME280;28233;55.748;48.752;2023-03-04T05:51:43;97653.84;;;0.58;90.14
42603;BME280;28233;55.748;48.752;2023-03-04T05:53:46;97662.06;;;0.53;90.84
42603;BME280;28233;55.748;48.752;2023-03-04T05:55:49;97661.78;;;0.54;90.73
42603;BME280;28233;55.748;48.752;2023-03-04T05:57:52;97659.16;;;0.49;90.81
42603;BME280;28233;55.748;48.752;2023-03-04T05:59:54;97661.25;;;0.52;90.53
42603;BME280;28233;55.748;48.752;2023-03-04T06:01:57;97664.47;;;0.54;90.29
42603;BME280;28233;55.748;48.752;2023-03-04T06:04:00;97671.69;;;0.59;90.69
42603;BME280;28233;55.748;48.752;2023-03-04T06:06:03;97664.38;;;0.59;90.58
42603;BME280;28233;55.748;48.752;2023-03-04T06:08:05;97660.03;;;0.58;89.96
42603;BME280;28233;55.748;48.752;2023-03-04T06:10:10;97662.44;;;0.60;89.83
42603;BME280;28233;55.748;48.752;2023-03-04T06:12:13;97662.34;;;0.65;90.23
42603;BME280;28233;55.748;48.752;2023-03-04T06:14:16;97657.25;;;0.63;89.28
42603;BME280;28233;55.748;48.752;2023-03-04T06:16:19;97651.81;;;0.77;89.63
42603;BME280;28233;55.748;48.752;2023-03-04T06:18:23;97652.00;;;0.81;88.73
42603;BME280;28233;55.748;48.752;2023-03-04T06:20:26;97659.09;;;0.91;88.23
42603;BME280;28233;55.748;48.752;2023-03-04T06:22:28;97660.47;;;1.02;87.96
42603;BME280;28233;55.748;48.752;2023-03-04T06:24:31;97657.94;;;1.05;86.87
42603;BME280;28233;55.748;48.752;2023-03-04T06:26:34;97656.63;;;1.17;86.92
42603;BME280;28233;55.748;48.752;2023-03-04T06:28:36;97650.53;;;1.34;86.73
42603;BME280;28233;55.748;48.752;2023-03-04T06:30:39;97653.75;;;1.36;85.99
42603;BME280;28233;55.748;48.752;2023-03-04T06:32:42;97652.25;;;1.52;86.24
42603;BME280;28233;55.748;48.752;2023-03-04T06:34:45;97651.72;;;1.64;85.86
42603;BME280;28233;55.748;48.752;2023-03-04T06:36:48;97657.44;;;1.62;84.72
42603;BME280;28233;55.748;48.752;2023-03-04T06:38:50;97658.03;;;1.59;84.63
42603;BME280;28233;55.748;48.752;2023-03-04T06:40:53;97656.59;;;1.53;84.16
42603;BME280;28233;55.748;48.752;2023-03-04T06:42:58;97647.03;;;1.33;83.20
42603;BME280;28233;55.748;48.752;2023-03-04T06:45:02;97657.25;;;1.14;83.16
42603;BME280;28233;55.748;48.752;2023-03-04T06:47:06;97656.78;;;0.98;83.38
42603;BME280;28233;55.748;48.752;2023-03-04T06:49:09;97657.69;;;0.93;84.45
42603;BME280;28233;55.748;48.752;2023-03-04T06:51:12;97657.31;;;0.86;83.72
42603;BME280;28233;55.748;48.752;2023-03-04T06:53:16;97659.50;;;0.84;84.47
42603;BME280;28233;55.748;48.752;2023-03-04T06:55:19;97649.47;;;0.84;84.92
42603;BME280;28233;55.748;48.752;2023-03-04T06:57:21;97649.06;;;0.91;84.06
42603;BME280;28233;55.748;48.752;2023-03-04T06:59:24;97646.75;;;0.98;84.17
42603;BME280;28233;55.748;48.752;2023-03-04T07:01:28;97645.78;;;1.17;84.47
42603;BME280;28233;55.748;48.752;2023-03-04T07:03:31;97643.72;;;1.36;83.37
42603;BME280;28233;55.748;48.752;2023-03-04T07:05:33;97645.13;;;1.56;82.97
42603;BME280;28233;55.748;48.752;2023-03-04T07:07:37;97639.47;;;1.66;82.44
42603;BME280;28233;55.748;48.752;2023-03-04T07:09:40;97645.84;;;1.71;82.06
42603;BME280;28233;55.748;48.752;2023-03-04T07:11:43;97641.94;;;1.77;81.15
42603;BME280;28233;55.748;48.752;2023-03-04T07:13:45;97639.50;;;1.98;80.16
42603;BME280;28233;55.748;48.752;2023-03-04T07:15:48;97636.94;;;2.01;79.99
42603;BME280;28233;55.748;48.752;2023-03-04T07:17:51;97642.91;;;2.12;78.39
42603;BME280;28233;55.748;48.752;2023-03-04T07:19:54;97641.53;;;2.32;78.89
42603;BME280;28233;55.748;48.752;2023-03-04T07:21:56;97640.66;;;2.54;78.63
42603;BME280;28233;55.748;48.752;2023-03-04T07:24:00;97642.13;;;2.69;77.33
42603;BME280;28233;55.748;48.752;2023-03-04T07:26:03;97636.22;;;2.67;76.35
42603;BME280;28233;55.748;48.752;2023-03-04T07:28:06;97636.34;;;2.53;76.35
42603;BME280;28233;55.748;48.752;2023-03-04T07:30:09;97637.31;;;2.57;77.12
42603;BME280;28233;55.748;48.752;2023-03-04T07:32:12;97638.06;;;2.49;76.05
42603;BME280;28233;55.748;48.752;2023-03-04T07:34:15;97639.31;;;2.34;75.82
42603;BME280;28233;55.748;48.752;2023-03-04T07:36:17;97641.69;;;2.27;76.67
42603;BME280;28233;55.748;48.752;2023-03-04T07:38:21;97628.41;;;2.17;76.28
42603;BME280;28233;55.748;48.752;2023-03-04T07:40:24;97634.94;;;2.16;76.83
42603;BME280;28233;55.748;48.752;2023-03-04T07:42:27;97635.13;;;2.28;76.59
42603;BME280;28233;55.748;48.752;2023-03-04T07:44:29;97626.28;;;2.53;76.86
42603;BME280;28233;55.748;48.752;2023-03-04T07:46:33;97632.56;;;2.80;76.29
42603;BME280;28233;55.748;48.752;2023-03-04T07:48:36;97625.88;;;2.95;75.19
42603;BME280;28233;55.748;48.752;2023-03-04T07:50:40;97621.88;;;3.10;73.99
42603;BME280;28233;55.748;48.752;2023-03-04T07:52:45;97621.41;;;3.16;73.86
42603;BME280;28233;55.748;48.752;2023-03-04T07:54:49;97622.06;;;3.39;73.84
42603;BME280;28233;55.748;48.752;2023-03-04T07:56:53;97611.81;;;3.54;72.83
42603;BME280;28233;55.748;48.752;2023-03-04T07:58:56;97613.69;;;3.71;72.83
42603;BME280;28233;55.748;48.752;2023-03-04T08:00:59;97611.06;;;4.00;72.71
42603;BME280;28233;55.748;48.752;2023-03-04T08:03:02;97603.84;;;4.43;71.93
42603;BME280;28233;55.748;48.752;2023-03-04T08:05:05;97609.28;;;4.73;70.74
42603;BME280;28233;55.748;48.752;2023-03-04T08:07:08;97608.56;;;4.84;69.40
42603;BME280;28233;55.748;48.752;2023-03-04T08:09:11;97614.16;;;4.79;67.84
42603;BME280;28233;55.748;48.752;2023-03-04T08:11:17;97606.16;;;4.83;67.94
42603;BME280;28233;55.748;48.752;2023-03-04T08:13:20;97607.94;;;4.79;67.74
42603;BME280;28233;55.748;48.752;2023-03-04T08:15:27;97606.53;;;4.94;68.06
42603;BME280;28233;55.748;48.752;2023-03-04T08:17:30;97607.47;;;5.19;66.96
42603;BME280;28233;55.748;48.752;2023-03-04T08:19:32;97608.72;;;5.42;65.55
42603;BME280;28233;55.748;48.752;2023-03-04T08:21:35;97612.13;;;5.39;65.53
42603;BME280;28233;55.748;48.752;2023-03-04T08:23:38;97604.19;;;5.46;65.37
42603;BME280;28233;55.748;48.752;2023-03-04T08:25:43;97608.94;;;5.37;63.77
42603;BME280;28233;55.748;48.752;2023-03-04T08:27:46;97602.25;;;5.14;64.30
42603;BME280;28233;55.748;48.752;2023-03-04T08:29:48;97600.78;;;5.16;64.89
42603;BME280;28233;55.748;48.752;2023-03-04T08:31:52;97603.09;;;5.05;64.84
42603;BME280;28233;55.748;48.752;2023-03-04T08:33:55;97599.50;;;5.14;65.08
42603;BME280;28233;55.748;48.752;2023-03-04T08:35:58;97593.44;;;5.29;64.61
42603;BME280;28233;55.748;48.752;2023-03-04T08:38:01;97595.22;;;5.46;64.58
42603;BME280;28233;55.748;48.752;2023-03-04T08:40:04;97586.41;;;5.61;63.13
42603;BME280;28233;55.748;48.752;2023-03-04T08:42:07;97583.59;;;5.58;64.47
42603;BME280;28233;55.748;48.752;2023-03-04T08:44:10;97574.94;;;5.56;65.90
42603;BME280;28233;55.748;48.752;2023-03-04T08:46:13;97583.88;;;5.44;65.76
42603;BME280;28233;55.748;48.752;2023-03-04T08:48:16;97584.09;;;5.39;66.39
42603;BME280;28233;55.748;48.752;2023-03-04T08:50:21;97580.69;;;5.42;67.78
42603;BME280;28233;55.748;48.752;2023-03-04T08:52:24;97578.19;;;5.37;67.21
42603;BME280;28233;55.748;48.752;2023-03-04T08:54:27;97580.28;;;5.31;67.34
42603;BME280;28233;55.748;48.752;2023-03-04T08:56:29;97569.63;;;5.26;67.90
42603;BME280;28233;55.748;48.752;2023-03-04T08:58:32;97563.25;;;5.22;68.43
42603;BME280;28233;55.748;48.752;2023-03-04T09:00:41;97569.28;;;5.27;69.64
42603;BME280;28233;55.748;48.752;2023-03-04T09:02:45;97569.34;;;5.19;69.34
42603;BME280;28233;55.748;48.752;2023-03-04T09:04:47;97573.03;;;5.02;70.15
42603;BME280;28233;55.748;48.752;2023-03-04T09:06:50;97567.00;;;4.96;73.04
42603;BME280;28233;55.748;48.752;2023-03-04T09:08:55;97561.63;;;4.87;73.40
42603;BME280;28233;55.748;48.752;2023-03-04T09:10:57;97556.22;;;4.79;73.37
42603;BME280;28233;55.748;48.752;2023-03-04T09:13:00;97556.63;;;4.69;73.98
42603;BME280;28233;55.748;48.752;2023-03-04T09:15:03;97559.13;;;4.53;74.76
42603;BME280;28233;55.748;48.752;2023-03-04T09:17:13;97559.19;;;4.44;74.47
42603;BME280;28233;55.748;48.752;2023-03-04T09:19:15;97549.84;;;4.33;76.92
42603;BME280;28233;55.748;48.752;2023-03-04T09:21:18;97554.53;;;4.23;76.21
42603;BME280;28233;55.748;48.752;2023-03-04T09:23:21;97556.91;;;3.95;73.87
42603;BME280;28233;55.748;48.752;2023-03-04T09:25:24;97544.56;;;3.98;76.46
42603;BME280;28233;55.748;48.752;2023-03-04T09:27:27;97550.13;;;4.01;75.94
42603;BME280;28233;55.748;48.752;2023-03-04T09:29:30;97544.69;;;4.01;78.54
42603;BME280;28233;55.748;48.752;2023-03-04T09:31:33;97544.38;;;4.03;78.80
42603;BME280;28233;55.748;48.752;2023-03-04T09:33:36;97546.66;;;3.92;78.00
42603;BME280;28233;55.748;48.752;2023-03-04T09:35:41;97538.50;;;3.92;80.66
42603;BME280;28233;55.748;48.752;2023-03-04T09:37:44;97538.03;;;3.90;81.48
42603;BME280;28233;55.748;48.752;2023-03-04T09:39:48;97541.31;;;3.75;79.90
42603;BME280;28233;55.748;48.752;2023-03-04T09:41:57;97532.69;;;3.64;79.96
42603;BME280;28233;55.748;48.752;2023-03-04T09:46:34;97533.72;;;3.42;79.63
42603;BME280;28233;55.748;48.752;2023-03-04T09:48:44;97536.50;;;3.16;79.83
42603;BME280;28233;55.748;48.752;2023-03-04T09:53:26;97527.75;;;2.93;81.43
42603;BME280;28233;55.748;48.752;2023-03-04T09:55:42;97534.75;;;3.03;85.78
42603;BME280;28233;55.748;48.752;2023-03-04T10:00:34;97526.31;;;3.13;85.28
42603;BME280;28233;55.748;48.752;2023-03-04T10:03:04;97518.16;;;3.13;85.20
42603;BME280;28233;55.748;48.752;2023-03-04T10:05:13;97517.97;;;3.18;86.04
42603;BME280;28233;55.748;48.752;2023-03-04T10:07:22;97509.97;;;3.39;87.31
42603;BME280;28233;55.748;48.752;2023-03-04T10:09:30;97515.19;;;3.53;86.53
42603;BME280;28233;55.748;48.752;2023-03-04T10:16:20;97503.97;;;3.63;84.62
42603;BME280;28233;55.748;48.752;2023-03-04T10:18:30;97507.56;;;3.76;87.93
42603;BME280;28233;55.748;48.752;2023-03-04T10:20:47;97504.50;;;3.86;85.16
42603;BME280;28233;55.748;48.752;2023-03-04T10:23:07;97491.84;;;3.90;86.48
42603;BME280;28233;55.748;48.752;2023-03-04T10:27:47;97497.88;;;4.26;88.58
42603;BME280;28233;55.748;48.752;2023-03-04T10:33:18;97486.88;;;4.22;85.36
42603;BME280;28233;55.748;48.752;2023-03-04T10:35:34;97485.94;;;4.18;86.12
42603;BME280;28233;55.748;48.752;2023-03-04T10:37:49;97478.66;;;4.10;84.44
42603;BME280;28233;55.748;48.752;2023-03-04T10:39:52;97477.72;;;4.06;86.44
42603;BME280;28233;55.748;48.752;2023-03-04T10:42:20;97478.09;;;3.95;85.43
42603;BME280;28233;55.748;48.752;2023-03-04T10:44:20;97472.03;;;3.90;86.25
42603;BME280;28233;55.748;48.752;2023-03-04T10:46:22;97473.81;;;3.86;86.86
42603;BME280;28233;55.748;48.752;2023-03-04T10:48:28;97464.69;;;3.60;85.23
42603;BME280;28233;55.748;48.752;2023-03-04T10:50:32;97470.59;;;3.63;88.06
42603;BME280;28233;55.748;48.752;2023-03-04T10:52:40;97468.84;;;3.58;87.05
42603;BME280;28233;55.748;48.752;2023-03-04T10:54:55;97465.56;;;3.44;87.91
42603;BME280;28233;55.748;48.752;2023-03-04T10:57:02;97464.88;;;3.47;88.57
42603;BME280;28233;55.748;48.752;2023-03-04T11:01:39;97464.59;;;3.39;90.31
42603;BME280;28233;55.748;48.752;2023-03-04T11:03:46;97463.16;;;3.33;90.12
42603;BME280;28233;55.748;48.752;2023-03-04T11:05:52;97461.78;;;3.27;90.09
42603;BME280;28233;55.748;48.752;2023-03-04T11:08:04;97455.09;;;3.16;88.67
42603;BME280;28233;55.748;48.752;2023-03-04T11:10:14;97450.16;;;3.09;89.70
42603;BME280;28233;55.748;48.752;2023-03-04T11:12:20;97441.25;;;3.00;89.85
42603;BME280;28233;55.748;48.752;2023-03-04T11:14:26;97444.91;;;3.13;91.97
42603;BME280;28233;55.748;48.752;2023-03-04T11:16:31;97442.00;;;3.18;90.87